sensor_id;sensor_type;location;lat;lon;timestamp;pressure;altitude;pressure_sealevel;temperature;humidity
6028;BME280;3042;43.194;27.646;2023-02-12T00:01:01;102762.03;;;5.20;76.45
6028;BME280;3042;43.194;27.646;2023-02-12T00:03:28;102761.56;;;5.16;76.05
6028;BME280;3042;43.194;27.646;2023-02-12T00:05:59;102284.78;;;2.64;75.98
6028;BME280;3042;43.194;27.646;2023-02-12T00:08:26;102755.09;;;5.37;76.50
6028;BME280;3042;43.194;27.646;2023-02-12T00:10:54;102456.47;;;3.89;75.67
6028;BME280;3042;43.194;27.646;2023-02-12T00:13:21;102716.81;;;5.29;75.06
6028;BME280;3042;43.194;27.646;2023-02-12T00:15:48;102741.19;;;5.52;75.19
6028;BME280;3042;43.194;27.646;2023-02-12T00:18:17;102729.53;;;5.73;75.65
6028;BME280;3042;43.194;27.646;2023-02-12T00:20:44;102746.31;;;5.52;75.17
6028;BME280;3042;43.194;27.646;2023-02-12T00:23:11;102692.81;;;5.38;75.41
6028;BME280;3042;43.194;27.646;2023-02-12T00:25:40;102733.31;;;5.77;75.70
6028;BME280;3042;43.194;27.646;2023-02-12T00:28:07;102725.00;;;5.70;75.59
6028;BME280;3042;43.194;27.646;2023-02-12T00:30:34;102728.75;;;5.83;75.21
6028;BME280;3042;43.194;27.646;2023-02-12T00:33:01;102735.28;;;5.70;75.20
6028;BME280;3042;43.194;27.646;2023-02-12T00:35:30;102721.66;;;5.89;75.34
6028;BME280;3042;43.194;27.646;2023-02-12T00:37:57;102730.56;;;5.84;75.37
6028;BME280;3042;43.194;27.646;2023-02-12T00:40:24;102727.41;;;5.86;75.15
6028;BME280;3042;43.194;27.646;2023-02-12T00:42:51;102489.38;;;4.64;75.18
6028;BME280;3042;43.194;27.646;2023-02-12T00:45:18;102602.00;;;4.91;74.36
6028;BME280;3042;43.194;27.646;2023-02-12T00:47:45;102739.06;;;5.57;75.77
6028;BME280;3042;43.194;27.646;2023-02-12T00:50:12;102416.31;;;3.79;75.39
6028;BME280;3042;43.194;27.646;2023-02-12T00:52:41;102727.72;;;5.81;75.98
6028;BME280;3042;43.194;27.646;2023-02-12T00:55:08;102722.44;;;5.70;75.91
6028;BME280;3042;43.194;27.646;2023-02-12T00:57:35;102724.28;;;5.71;76.22
6028;BME280;3042;43.194;27.646;2023-02-12T01:00:02;102707.66;;;5.85;76.49
6028;BME280;3042;43.194;27.646;2023-02-12T01:02:29;102711.09;;;5.86;76.46
6028;BME280;3042;43.194;27.646;2023-02-12T01:04:56;102703.69;;;5.89;76.24
6028;BME280;3042;43.194;27.646;2023-02-12T01:07:23;102695.38;;;6.00;76.70
6028;BME280;3042;43.194;27.646;2023-02-12T01:09:52;102690.34;;;6.10;76.98
6028;BME280;3042;43.194;27.646;2023-02-12T01:12:19;102692.22;;;5.94;76.62
6028;BME280;3042;43.194;27.646;2023-02-12T01:14:46;102613.63;;;4.87;76.79
6028;BME280;3042;43.194;27.646;2023-02-12T01:17:13;102698.31;;;5.68;77.27
6028;BME280;3042;43.194;27.646;2023-02-12T01:19:40;102694.38;;;5.81;76.87
6028;BME280;3042;43.194;27.646;2023-02-12T01:22:07;102691.63;;;5.88;76.64
6028;BME280;3042;43.194;27.646;2023-02-12T01:24:34;102683.00;;;5.87;76.97
6028;BME280;3042;43.194;27.646;2023-02-12T01:27:02;102670.88;;;6.12;77.53
6028;BME280;3042;43.194;27.646;2023-02-12T01:29:29;102133.19;;;2.97;76.66
6028;BME280;3042;43.194;27.646;2023-02-12T01:31:56;102667.06;;;6.18;77.05
6028;BME280;3042;43.194;27.646;2023-02-12T01:34:23;102672.06;;;6.16;76.32
6028;BME280;3042;43.194;27.646;2023-02-12T01:36:50;102668.88;;;6.19;76.10
6028;BME280;3042;43.194;27.646;2023-02-12T01:39:17;102674.22;;;6.11;75.45
6028;BME280;3042;43.194;27.646;2023-02-12T01:41:44;102670.69;;;6.20;75.85
6028;BME280;3042;43.194;27.646;2023-02-12T01:44:16;102549.50;;;5.86;75.96
6028;BME280;3042;43.194;27.646;2023-02-12T01:46:44;102665.47;;;6.37;75.63
6028;BME280;3042;43.194;27.646;2023-02-12T01:49:14;102283.72;;;3.56;75.67
6028;BME280;3042;43.194;27.646;2023-02-12T01:51:44;102668.03;;;6.09;76.33
6028;BME280;3042;43.194;27.646;2023-02-12T01:54:14;101956.03;;;2.15;75.89
6028;BME280;3042;43.194;27.646;2023-02-12T01:56:42;102182.16;;;3.02;75.18
6028;BME280;3042;43.194;27.646;2023-02-12T01:59:10;102653.09;;;6.33;75.51
6028;BME280;3042;43.194;27.646;2023-02-12T02:01:40;102647.00;;;6.41;75.75
6028;BME280;3042;43.194;27.646;2023-02-12T02:04:10;102639.72;;;6.46;76.06
6028;BME280;3042;43.194;27.646;2023-02-12T02:06:43;102641.19;;;6.52;76.32
6028;BME280;3042;43.194;27.646;2023-02-12T02:09:12;102650.59;;;6.43;75.71
6028;BME280;3042;43.194;27.646;2023-02-12T02:11:39;102652.13;;;6.41;75.55
6028;BME280;3042;43.194;27.646;2023-02-12T02:14:24;102635.78;;;6.49;74.97
6028;BME280;3042;43.194;27.646;2023-02-12T02:17:19;102627.88;;;6.57;74.30
6028;BME280;3042;43.194;27.646;2023-02-12T02:22:43;102631.94;;;6.54;73.19
6028;BME280;3042;43.194;27.646;2023-02-12T02:25:31;102375.19;;;5.03;72.93
6028;BME280;3042;43.194;27.646;2023-02-12T02:28:11;102626.06;;;6.55;73.23
6028;BME280;3042;43.194;27.646;2023-02-12T02:30:53;102633.22;;;6.49;73.64
6028;BME280;3042;43.194;27.646;2023-02-12T02:33:30;102445.63;;;5.25;73.39
6028;BME280;3042;43.194;27.646;2023-02-12T02:36:11;102551.47;;;5.80;73.05
6028;BME280;3042;43.194;27.646;2023-02-12T02:38:42;102644.78;;;6.36;72.48
6028;BME280;3042;43.194;27.646;2023-02-12T02:41:14;102658.59;;;6.46;72.30
6028;BME280;3042;43.194;27.646;2023-02-12T02:43:45;102641.38;;;6.45;72.25
6028;BME280;3042;43.194;27.646;2023-02-12T02:46:19;102634.16;;;6.60;72.60
6028;BME280;3042;43.194;27.646;2023-02-12T02:48:51;102540.97;;;6.04;71.75
6028;BME280;3042;43.194;27.646;2023-02-12T02:51:21;102652.63;;;6.37;72.13
6028;BME280;3042;43.194;27.646;2023-02-12T02:53:53;102653.81;;;6.13;73.81
6028;BME280;3042;43.194;27.646;2023-02-12T02:56:23;102680.25;;;5.58;74.68
6028;BME280;3042;43.194;27.646;2023-02-12T02:58:56;102678.41;;;5.75;75.19
6028;BME280;3042;43.194;27.646;2023-02-12T03:01:29;102665.66;;;6.02;75.50
6028;BME280;3042;43.194;27.646;2023-02-12T03:04:01;102271.88;;;4.02;75.45
6028;BME280;3042;43.194;27.646;2023-02-12T03:06:33;102646.25;;;6.42;75.47
6028;BME280;3042;43.194;27.646;2023-02-12T03:09:10;102573.50;;;6.14;75.02
6028;BME280;3042;43.194;27.646;2023-02-12T03:11:39;102650.41;;;6.50;74.92
6028;BME280;3042;43.194;27.646;2023-02-12T03:14:10;102654.66;;;6.69;74.92
6028;BME280;3042;43.194;27.646;2023-02-12T03:16:41;102646.41;;;6.63;75.21
6028;BME280;3042;43.194;27.646;2023-02-12T03:19:12;102622.47;;;6.53;75.33
6028;BME280;3042;43.194;27.646;2023-02-12T03:21:45;102616.81;;;6.58;74.80
6028;BME280;3042;43.194;27.646;2023-02-12T03:24:18;102651.13;;;6.77;75.47
6028;BME280;3042;43.194;27.646;2023-02-12T03:26:51;102646.81;;;6.86;75.58
6028;BME280;3042;43.194;27.646;2023-02-12T03:29:20;102642.44;;;6.85;75.48
6028;BME280;3042;43.194;27.646;2023-02-12T03:31:57;102652.88;;;6.68;74.42
6028;BME280;3042;43.194;27.646;2023-02-12T03:34:33;102334.03;;;4.46;74.44
6028;BME280;3042;43.194;27.646;2023-02-12T03:37:09;102663.47;;;6.62;74.34
6028;BME280;3042;43.194;27.646;2023-02-12T03:39:45;102665.53;;;6.47;74.37
6028;BME280;3042;43.194;27.646;2023-02-12T03:42:20;102288.97;;;4.20;73.29
6028;BME280;3042;43.194;27.646;2023-02-12T03:44:52;102664.75;;;6.48;73.29
6028;BME280;3042;43.194;27.646;2023-02-12T03:47:28;102607.97;;;6.07;73.31
6028;BME280;3042;43.194;27.646;2023-02-12T03:50:06;102671.72;;;6.49;73.82
6028;BME280;3042;43.194;27.646;2023-02-12T03:52:36;102678.78;;;6.33;74.05
6028;BME280;3042;43.194;27.646;2023-02-12T03:55:04;102665.06;;;6.51;73.67
6028;BME280;3042;43.194;27.646;2023-02-12T03:57:37;102659.38;;;6.64;74.19
6028;BME280;3042;43.194;27.646;2023-02-12T04:00:07;102667.44;;;6.59;74.23
6028;BME280;3042;43.194;27.646;2023-02-12T04:02:36;102653.13;;;6.71;75.17
6028;BME280;3042;43.194;27.646;2023-02-12T04:05:04;102103.59;;;3.62;74.16
6028;BME280;3042;43.194;27.646;2023-02-12T04:07:32;102643.63;;;6.89;74.10
6028;BME280;3042;43.194;27.646;2023-02-12T04:09:59;102642.16;;;6.82;73.43
6028;BME280;3042;43.194;27.646;2023-02-12T04:12:33;102551.91;;;6.69;73.92
6028;BME280;3042;43.194;27.646;2023-02-12T04:15:15;102635.88;;;7.08;74.24
6028;BME280;3042;43.194;27.646;2023-02-12T04:17:56;102646.44;;;7.11;73.59
6028;BME280;3042;43.194;27.646;2023-02-12T04:20:38;102638.69;;;7.01;73.55
6028;BME280;3042;43.194;27.646;2023-02-12T04:23:12;102639.50;;;7.10;73.16
6028;BME280;3042;43.194;27.646;2023-02-12T04:25:52;102649.00;;;7.11;73.43
6028;BME280;3042;43.194;27.646;2023-02-12T04:28:36;102643.38;;;7.15;72.95
6028;BME280;3042;43.194;27.646;2023-02-12T04:31:12;102647.63;;;7.14;72.90
6028;BME280;3042;43.194;27.646;2023-02-12T04:33:46;102440.13;;;6.05;72.27
6028;BME280;3042;43.194;27.646;2023-02-12T04:36:16;102656.09;;;7.13;73.06
6028;BME280;3042;43.194;27.646;2023-02-12T04:38:50;102642.56;;;7.06;73.04
6028;BME280;3042;43.194;27.646;2023-02-12T04:41:19;102670.03;;;7.07;72.80
6028;BME280;3042;43.194;27.646;2023-02-12T04:43:46;102666.66;;;7.16;71.64
6028;BME280;3042;43.194;27.646;2023-02-12T04:46:13;102638.81;;;6.83;71.51
6028;BME280;3042;43.194;27.646;2023-02-12T04:48:49;101882.91;;;2.59;71.39
6028;BME280;3042;43.194;27.646;2023-02-12T04:51:18;102356.41;;;4.94;71.30
6028;BME280;3042;43.194;27.646;2023-02-12T04:53:45;102678.06;;;7.10;71.82
6028;BME280;3042;43.194;27.646;2023-02-12T04:56:12;102646.31;;;6.90;71.64
6028;BME280;3042;43.194;27.646;2023-02-12T04:58:39;102637.38;;;6.95;71.27
6028;BME280;3042;43.194;27.646;2023-02-12T05:01:07;102667.84;;;7.30;72.33
6028;BME280;3042;43.194;27.646;2023-02-12T05:03:34;102673.00;;;7.30;71.71
6028;BME280;3042;43.194;27.646;2023-02-12T05:06:04;102628.81;;;7.34;71.76
6028;BME280;3042;43.194;27.646;2023-02-12T05:08:31;102659.44;;;7.42;72.26
6028;BME280;3042;43.194;27.646;2023-02-12T05:11:03;102667.22;;;7.52;72.75
6028;BME280;3042;43.194;27.646;2023-02-12T05:13:30;102422.03;;;6.23;72.94
6028;BME280;3042;43.194;27.646;2023-02-12T05:15:57;102668.81;;;7.70;73.50
6028;BME280;3042;43.194;27.646;2023-02-12T05:18:24;102671.41;;;7.70;74.46
6028;BME280;3042;43.194;27.646;2023-02-12T05:20:55;102676.06;;;7.85;75.07
6028;BME280;3042;43.194;27.646;2023-02-12T05:23:25;102671.59;;;7.63;76.14
6028;BME280;3042;43.194;27.646;2023-02-12T05:25:52;102701.75;;;7.74;76.91
6028;BME280;3042;43.194;27.646;2023-02-12T05:28:19;102697.94;;;7.90;76.79
6028;BME280;3042;43.194;27.646;2023-02-12T05:30:47;102597.03;;;7.24;76.61
6028;BME280;3042;43.194;27.646;2023-02-12T05:33:14;102690.03;;;8.17;76.72
6028;BME280;3042;43.194;27.646;2023-02-12T05:35:41;102708.75;;;7.96;76.68
6028;BME280;3042;43.194;27.646;2023-02-12T05:38:08;102712.91;;;8.04;76.54
6028;BME280;3042;43.194;27.646;2023-02-12T05:40:36;102617.66;;;7.94;76.66
6028;BME280;3042;43.194;27.646;2023-02-12T05:43:04;102704.13;;;8.62;76.02
6028;BME280;3042;43.194;27.646;2023-02-12T05:45:32;102712.38;;;8.58;75.94
6028;BME280;3042;43.194;27.646;2023-02-12T05:47:59;102714.53;;;8.63;75.33
6028;BME280;3042;43.194;27.646;2023-02-12T05:50:27;102476.34;;;7.35;74.26
6028;BME280;3042;43.194;27.646;2023-02-12T05:52:54;102713.41;;;8.80;74.65
6028;BME280;3042;43.194;27.646;2023-02-12T05:55:21;102730.00;;;8.63;74.81
6028;BME280;3042;43.194;27.646;2023-02-12T05:57:49;102707.53;;;9.03;74.63
6028;BME280;3042;43.194;27.646;2023-02-12T06:00:17;102651.91;;;8.75;75.10
6028;BME280;3042;43.194;27.646;2023-02-12T06:02:44;102717.88;;;9.03;74.59
6028;BME280;3042;43.194;27.646;2023-02-12T06:05:11;102718.38;;;9.09;74.66
6028;BME280;3042;43.194;27.646;2023-02-12T06:07:38;102712.19;;;9.18;74.35
6028;BME280;3042;43.194;27.646;2023-02-12T06:10:06;102716.00;;;9.33;74.16
6028;BME280;3042;43.194;27.646;2023-02-12T06:12:33;102723.75;;;9.33;74.68
6028;BME280;3042;43.194;27.646;2023-02-12T06:15:02;102709.09;;;9.54;74.70
6028;BME280;3042;43.194;27.646;2023-02-12T06:17:29;102708.44;;;9.57;74.13
6028;BME280;3042;43.194;27.646;2023-02-12T06:19:56;102715.06;;;9.75;74.22
6028;BME280;3042;43.194;27.646;2023-02-12T06:22:23;102711.13;;;9.90;73.75
6028;BME280;3042;43.194;27.646;2023-02-12T06:24:50;102713.22;;;10.06;74.29
6028;BME280;3042;43.194;27.646;2023-02-12T06:27:17;102728.34;;;10.02;nan
6028;BME280;3042;43.194;27.646;2023-02-12T06:29:44;102734.16;;;9.77;73.19
6028;BME280;3042;43.194;27.646;2023-02-12T06:32:12;102731.44;;;9.76;74.97
6028;BME280;3042;43.194;27.646;2023-02-12T06:34:40;102767.53;;;9.11;75.71
6028;BME280;3042;43.194;27.646;2023-02-12T06:37:07;102782.34;;;8.93;76.63
6028;BME280;3042;43.194;27.646;2023-02-12T06:39:34;102785.44;;;8.89;76.83
6028;BME280;3042;43.194;27.646;2023-02-12T06:42:01;102799.38;;;8.81;77.55
6028;BME280;3042;43.194;27.646;2023-02-12T06:44:28;102766.81;;;9.44;77.66
6028;BME280;3042;43.194;27.646;2023-02-12T06:46:55;102752.19;;;9.87;77.36
6028;BME280;3042;43.194;27.646;2023-02-12T06:49:24;102656.09;;;9.47;76.27
6028;BME280;3042;43.194;27.646;2023-02-12T06:51:51;102732.81;;;10.14;75.97
6028;BME280;3042;43.194;27.646;2023-02-12T06:54:18;102733.94;;;10.28;74.99
6028;BME280;3042;43.194;27.646;2023-02-12T06:56:45;102743.88;;;10.24;74.60
6028;BME280;3042;43.194;27.646;2023-02-12T06:59:14;102745.00;;;10.27;74.26
6028;BME280;3042;43.194;27.646;2023-02-12T07:01:42;102742.84;;;10.44;73.87
6028;BME280;3042;43.194;27.646;2023-02-12T07:04:10;102734.59;;;10.60;73.82
6028;BME280;3042;43.194;27.646;2023-02-12T07:06:38;102726.53;;;10.78;73.69
6028;BME280;3042;43.194;27.646;2023-02-12T07:09:05;102736.47;;;10.84;73.44
6028;BME280;3042;43.194;27.646;2023-02-12T07:11:34;102724.13;;;11.04;73.22
6028;BME280;3042;43.194;27.646;2023-02-12T07:14:01;102725.50;;;11.10;72.99
6028;BME280;3042;43.194;27.646;2023-02-12T07:16:28;102721.88;;;11.32;73.02
6028;BME280;3042;43.194;27.646;2023-02-12T07:18:55;102734.03;;;11.33;72.88
6028;BME280;3042;43.194;27.646;2023-02-12T07:21:22;102726.84;;;11.29;72.58
6028;BME280;3042;43.194;27.646;2023-02-12T07:23:51;102717.81;;;11.71;73.02
6028;BME280;3042;43.194;27.646;2023-02-12T07:26:20;102470.72;;;10.56;72.49
6028;BME280;3042;43.194;27.646;2023-02-12T07:28:47;102721.84;;;11.79;71.88
6028;BME280;3042;43.194;27.646;2023-02-12T07:31:16;102729.47;;;11.77;71.61
6028;BME280;3042;43.194;27.646;2023-02-12T07:33:43;102308.28;;;9.20;71.45
6028;BME280;3042;43.194;27.646;2023-02-12T07:36:12;102389.16;;;9.78;71.68
6028;BME280;3042;43.194;27.646;2023-02-12T07:38:39;102639.78;;;11.17;71.51
6028;BME280;3042;43.194;27.646;2023-02-12T07:41:10;102427.75;;;9.88;71.74
6028;BME280;3042;43.194;27.646;2023-02-12T07:43:38;102747.53;;;11.76;71.84
6028;BME280;3042;43.194;27.646;2023-02-12T07:46:07;102742.31;;;11.99;71.75
6028;BME280;3042;43.194;27.646;2023-02-12T07:48:34;102649.59;;;11.58;71.68
6028;BME280;3042;43.194;27.646;2023-02-12T07:51:03;102738.84;;;12.24;71.42
6028;BME280;3042;43.194;27.646;2023-02-12T07:53:31;102747.88;;;12.17;70.84
6028;BME280;3042;43.194;27.646;2023-02-12T07:56:04;102739.19;;;12.54;71.30
6028;BME280;3042;43.194;27.646;2023-02-12T07:58:33;102745.38;;;12.56;71.21
6028;BME280;3042;43.194;27.646;2023-02-12T08:01:09;102748.44;;;12.50;70.70
6028;BME280;3042;43.194;27.646;2023-02-12T08:03:36;102756.13;;;12.12;70.22
6028;BME280;3042;43.194;27.646;2023-02-12T08:06:06;102742.22;;;12.35;70.38
6028;BME280;3042;43.194;27.646;2023-02-12T08:08:34;102762.19;;;12.24;70.06
6028;BME280;3042;43.194;27.646;2023-02-12T08:11:04;102667.38;;;12.02;70.45
6028;BME280;3042;43.194;27.646;2023-02-12T08:13:33;102747.84;;;12.79;70.88
6028;BME280;3042;43.194;27.646;2023-02-12T08:16:00;102518.31;;;11.32;70.03
6028;BME280;3042;43.194;27.646;2023-02-12T08:18:29;102754.41;;;12.74;70.20
6028;BME280;3042;43.194;27.646;2023-02-12T08:21:00;102764.38;;;12.68;70.25
6028;BME280;3042;43.194;27.646;2023-02-12T08:23:29;102775.00;;;12.59;70.04
6028;BME280;3042;43.194;27.646;2023-02-12T08:26:04;102704.97;;;12.46;70.58
6028;BME280;3042;43.194;27.646;2023-02-12T08:28:33;102769.41;;;12.92;70.28
6028;BME280;3042;43.194;27.646;2023-02-12T08:31:01;102763.53;;;12.94;70.16
6028;BME280;3042;43.194;27.646;2023-02-12T08:33:29;102781.75;;;12.69;70.60
6028;BME280;3042;43.194;27.646;2023-02-12T08:36:04;102344.41;;;10.61;70.66
6028;BME280;3042;43.194;27.646;2023-02-12T08:38:32;102331.19;;;10.45;70.26
6028;BME280;3042;43.194;27.646;2023-02-12T08:41:00;102628.91;;;11.95;70.12
6028;BME280;3042;43.194;27.646;2023-02-12T08:43:28;102775.03;;;12.98;69.94
6028;BME280;3042;43.194;27.646;2023-02-12T08:46:02;102766.50;;;13.25;70.18
6028;BME280;3042;43.194;27.646;2023-02-12T08:48:29;102761.09;;;13.09;69.83
6028;BME280;3042;43.194;27.646;2023-02-12T08:51:01;102664.38;;;12.46;69.16
6028;BME280;3042;43.194;27.646;2023-02-12T08:53:28;102762.28;;;13.14;69.51
6028;BME280;3042;43.194;27.646;2023-02-12T08:55:55;102767.75;;;13.05;68.70
6028;BME280;3042;43.194;27.646;2023-02-12T08:58:22;102769.06;;;13.12;68.60
6028;BME280;3042;43.194;27.646;2023-02-12T09:00:49;102781.97;;;13.24;68.59
6028;BME280;3042;43.194;27.646;2023-02-12T09:03:18;102765.94;;;13.43;67.94
6028;BME280;3042;43.194;27.646;2023-02-12T09:05:45;102742.78;;;13.33;67.91
6028;BME280;3042;43.194;27.646;2023-02-12T09:08:12;102765.53;;;13.63;67.91
6028;BME280;3042;43.194;27.646;2023-02-12T09:10:39;102759.22;;;13.86;68.54
6028;BME280;3042;43.194;27.646;2023-02-12T09:13:06;102758.41;;;13.74;67.32
6028;BME280;3042;43.194;27.646;2023-02-12T09:15:37;102752.63;;;14.20;67.81
6028;BME280;3042;43.194;27.646;2023-02-12T09:18:05;102753.06;;;14.12;67.19
6028;BME280;3042;43.194;27.646;2023-02-12T09:20:36;102292.72;;;11.38;66.28
6028;BME280;3042;43.194;27.646;2023-02-12T09:23:04;102745.22;;;13.84;65.87
6028;BME280;3042;43.194;27.646;2023-02-12T09:25:31;102690.19;;;13.77;65.90
6028;BME280;3042;43.194;27.646;2023-02-12T09:27:59;102751.03;;;14.22;65.56
6028;BME280;3042;43.194;27.646;2023-02-12T09:30:26;102751.94;;;14.09;64.42
6028;BME280;3042;43.194;27.646;2023-02-12T09:32:54;102661.34;;;13.87;64.65
6028;BME280;3042;43.194;27.646;2023-02-12T09:35:21;102434.13;;;11.88;64.58
6028;BME280;3042;43.194;27.646;2023-02-12T09:37:51;102408.34;;;11.77;64.62
6028;BME280;3042;43.194;27.646;2023-02-12T09:40:20;102775.59;;;13.99;64.91
6028;BME280;3042;43.194;27.646;2023-02-12T09:42:58;102766.47;;;14.05;64.32
6028;BME280;3042;43.194;27.646;2023-02-12T09:45:32;102782.50;;;13.85;64.11
6028;BME280;3042;43.194;27.646;2023-02-12T09:48:07;102780.09;;;13.88;64.86
6028;BME280;3042;43.194;27.646;2023-02-12T09:50:45;102599.97;;;12.66;64.41
6028;BME280;3042;43.194;27.646;2023-02-12T09:53:17;102320.72;;;11.05;64.71
6028;BME280;3042;43.194;27.646;2023-02-12T09:55:45;102795.53;;;13.58;65.05
6028;BME280;3042;43.194;27.646;2023-02-12T09:58:15;102781.31;;;13.93;64.73
6028;BME280;3042;43.194;27.646;2023-02-12T10:00:43;102785.22;;;13.86;64.53
6028;BME280;3042;43.194;27.646;2023-02-12T10:03:13;102767.06;;;14.14;64.75
6028;BME280;3042;43.194;27.646;2023-02-12T10:05:44;102763.78;;;14.32;64.33
6028;BME280;3042;43.194;27.646;2023-02-12T10:08:31;102762.13;;;14.47;64.18
6028;BME280;3042;43.194;27.646;2023-02-12T10:11:15;102771.28;;;13.99;63.72
6028;BME280;3042;43.194;27.646;2023-02-12T10:13:54;102784.69;;;13.92;64.34
6028;BME280;3042;43.194;27.646;2023-02-12T10:16:36;102638.69;;;13.29;64.43
6028;BME280;3042;43.194;27.646;2023-02-12T10:19:14;102688.56;;;13.79;64.25
6028;BME280;3042;43.194;27.646;2023-02-12T10:21:53;102766.94;;;14.13;63.93
6028;BME280;3042;43.194;27.646;2023-02-12T10:24:39;102771.13;;;14.24;63.42
6028;BME280;3042;43.194;27.646;2023-02-12T10:27:14;102520.75;;;12.31;62.70
6028;BME280;3042;43.194;27.646;2023-02-12T10:29:44;102789.41;;;13.84;63.29
6028;BME280;3042;43.194;27.646;2023-02-12T10:32:20;102786.69;;;13.96;62.53
6028;BME280;3042;43.194;27.646;2023-02-12T10:34:49;102836.78;;;13.54;61.20
6028;BME280;3042;43.194;27.646;2023-02-12T10:37:25;102803.00;;;13.67;62.16
6028;BME280;3042;43.194;27.646;2023-02-12T10:39:58;102811.09;;;13.45;61.83
6028;BME280;3042;43.194;27.646;2023-02-12T10:42:36;102800.09;;;13.62;61.91
6028;BME280;3042;43.194;27.646;2023-02-12T10:45:04;102806.41;;;13.66;62.21
6028;BME280;3042;43.194;27.646;2023-02-12T10:47:32;102795.31;;;13.68;61.40
6028;BME280;3042;43.194;27.646;2023-02-12T10:50:00;102788.09;;;13.91;61.67
6028;BME280;3042;43.194;27.646;2023-02-12T10:52:40;102797.31;;;13.72;62.42
6028;BME280;3042;43.194;27.646;2023-02-12T10:55:26;102796.09;;;13.94;63.04
6028;BME280;3042;43.194;27.646;2023-02-12T10:57:55;102634.06;;;12.59;62.77
6028;BME280;3042;43.194;27.646;2023-02-12T11:00:25;102808.50;;;13.85;63.03
6028;BME280;3042;43.194;27.646;2023-02-12T11:03:16;102793.41;;;14.21;63.64
6028;BME280;3042;43.194;27.646;2023-02-12T11:05:44;102789.00;;;14.33;63.24
6028;BME280;3042;43.194;27.646;2023-02-12T11:08:28;102799.44;;;14.20;63.36
6028;BME280;3042;43.194;27.646;2023-02-12T11:11:04;102792.97;;;14.41;63.25
6028;BME280;3042;43.194;27.646;2023-02-12T11:13:32;102789.00;;;14.33;63.73
6028;BME280;3042;43.194;27.646;2023-02-12T11:15:59;102668.19;;;13.71;63.65
6028;BME280;3042;43.194;27.646;2023-02-12T11:18:28;102776.94;;;14.76;63.39
6028;BME280;3042;43.194;27.646;2023-02-12T11:20:59;102778.75;;;14.77;63.59
6028;BME280;3042;43.194;27.646;2023-02-12T11:23:28;102584.00;;;13.83;63.11
6028;BME280;3042;43.194;27.646;2023-02-12T11:25:59;102368.81;;;13.03;63.38
6028;BME280;3042;43.194;27.646;2023-02-12T11:28:28;102716.34;;;14.79;63.69
6028;BME280;3042;43.194;27.646;2023-02-12T11:30:57;102767.38;;;15.20;63.52
6028;BME280;3042;43.194;27.646;2023-02-12T11:33:30;102770.31;;;15.26;63.65
6028;BME280;3042;43.194;27.646;2023-02-12T11:35:59;102714.56;;;14.78;63.77
6028;BME280;3042;43.194;27.646;2023-02-12T11:38:31;102517.53;;;14.16;63.40
6028;BME280;3042;43.194;27.646;2023-02-12T11:41:05;102782.53;;;15.27;63.32
6028;BME280;3042;43.194;27.646;2023-02-12T11:43:35;102578.03;;;13.84;63.27
6028;BME280;3042;43.194;27.646;2023-02-12T11:46:04;102478.03;;;13.77;63.45
6028;BME280;3042;43.194;27.646;2023-02-12T11:48:36;102755.56;;;15.71;63.40
6028;BME280;3042;43.194;27.646;2023-02-12T11:51:06;102332.16;;;13.26;62.38
6028;BME280;3042;43.194;27.646;2023-02-12T11:53:37;102755.72;;;15.74;62.24
6028;BME280;3042;43.194;27.646;2023-02-12T11:56:09;102757.53;;;15.46;61.39
6028;BME280;3042;43.194;27.646;2023-02-12T11:58:38;102554.59;;;14.56;61.82
6028;BME280;3042;43.194;27.646;2023-02-12T12:01:13;102492.69;;;14.36;62.43
6028;BME280;3042;43.194;27.646;2023-02-12T12:03:49;102755.31;;;15.68;62.14
6028;BME280;3042;43.194;27.646;2023-02-12T12:06:30;102628.81;;;14.22;61.46
6028;BME280;3042;43.194;27.646;2023-02-12T12:09:04;102789.25;;;15.09;60.91
6028;BME280;3042;43.194;27.646;2023-02-12T12:11:37;102488.16;;;13.16;60.88
6028;BME280;3042;43.194;27.646;2023-02-12T12:14:15;102693.47;;;14.30;61.35
6028;BME280;3042;43.194;27.646;2023-02-12T12:16:49;102799.03;;;14.83;60.64
6028;BME280;3042;43.194;27.646;2023-02-12T12:19:41;102811.34;;;14.57;60.87
6028;BME280;3042;43.194;27.646;2023-02-12T12:22:29;102806.97;;;14.43;60.69
6028;BME280;3042;43.194;27.646;2023-02-12T12:25:03;102399.66;;;12.02;60.39
6028;BME280;3042;43.194;27.646;2023-02-12T12:27:36;102833.50;;;14.38;60.40
6028;BME280;3042;43.194;27.646;2023-02-12T12:30:32;102836.78;;;14.35;60.15
6028;BME280;3042;43.194;27.646;2023-02-12T12:33:05;102439.22;;;11.74;60.24
6028;BME280;3042;43.194;27.646;2023-02-12T12:35:40;102854.88;;;14.05;60.56
6028;BME280;3042;43.194;27.646;2023-02-12T12:38:19;102510.28;;;12.43;60.87
6028;BME280;3042;43.194;27.646;2023-02-12T12:40:59;102866.22;;;14.21;61.44
6028;BME280;3042;43.194;27.646;2023-02-12T12:43:35;102854.56;;;14.55;61.63
6028;BME280;3042;43.194;27.646;2023-02-12T12:46:30;102876.84;;;14.24;62.66
6028;BME280;3042;43.194;27.646;2023-02-12T12:49:12;102751.34;;;13.32;62.39
6028;BME280;3042;43.194;27.646;2023-02-12T12:52:01;102418.16;;;11.43;62.93
6028;BME280;3042;43.194;27.646;2023-02-12T12:54:48;102789.31;;;13.43;63.74
6028;BME280;3042;43.194;27.646;2023-02-12T12:57:29;102888.25;;;13.99;64.38
6028;BME280;3042;43.194;27.646;2023-02-12T13:00:11;102768.13;;;13.37;64.53
6028;BME280;3042;43.194;27.646;2023-02-12T13:06:28;102920.63;;;13.78;65.47
6028;BME280;3042;43.194;27.646;2023-02-12T13:11:56;102924.44;;;13.83;65.88
6028;BME280;3042;43.194;27.646;2023-02-12T13:14:36;102893.88;;;13.15;66.22
6028;BME280;3042;43.194;27.646;2023-02-12T13:17:10;102942.59;;;13.69;66.93
6028;BME280;3042;43.194;27.646;2023-02-12T13:19:50;102682.19;;;12.42;67.35
6028;BME280;3042;43.194;27.646;2023-02-12T13:22:23;102942.63;;;13.96;67.21
6028;BME280;3042;43.194;27.646;2023-02-12T13:24:56;102954.78;;;13.70;67.48
6028;BME280;3042;43.194;27.646;2023-02-12T13:27:25;102920.00;;;13.68;67.77
6028;BME280;3042;43.194;27.646;2023-02-12T13:29:58;102956.72;;;13.86;68.38
6028;BME280;3042;43.194;27.646;2023-02-12T13:32:32;102990.22;;;13.32;68.68
6028;BME280;3042;43.194;27.646;2023-02-12T13:35:04;102985.25;;;13.35;69.65